Apple Grove, North Carolina
Current Conditions -  °F | °C
As of 9:15 PM on Saturday 22 Nov 2014 (Local Time) from KGEV Reporting Station
Clear Clear  
Wind Chill:   Ceiling: Unl
Heat Index:   Visibility: 10mi
Dew Point: -9°   Wind: 0mph
Humidity: 43%   Direction: NA
Pressure: 30.27"   Gusts: NA
Location:  36.524°N, 81.538°W
Report Text: KGEV 230215Z AUTO 00000KT 10SM CLR 02/M09 A3027 RMK AO2 T00221093
Loading
Personal Weather Stations






























Interactive Weather Map New forecast layout! Learn more

10-Day Weather Forecast

Advertisements
Track Severe Weather on mobile